Terminal Aerodrome Forecast
Issued by NWS Jacksonville, FL

Home | Current Version | Previous Version | Text Only | Print | Product List | Glossary On
Versions: 1 2 3 4 5 6 7 8 9 10 11 12 13 14 15 16 17 18 19 20
278
FTUS42 KJAX 291358 AAB
TAFSSI
TAF AMD
KSSI 291358Z 2914/3012 15010KT P6SM SCT010 BKN025
     FM291530 13013G20KT P6SM SCT030
     FM300000 13011KT P6SM SCT008 BKN015
     FM300500 14010KT P6SM BKN015=

USA.gov is the U.S. government's official web portal to all federal, state and local government web resources and services.